sensor_id;sensor_type;location;lat;lon;timestamp;pressure;altitude;pressure_sealevel;temperature;humidity
49583;BME280;36329;48.816;44.624;2023-05-24T00:00:20;101036;;;16.8;100
49583;BME280;36329;48.816;44.624;2023-05-24T00:03:22;101027;;;16.8;100
49583;BME280;36329;48.816;44.624;2023-05-24T00:06:24;101031;;;16.7;100
49583;BME280;36329;48.816;44.624;2023-05-24T00:09:26;101027;;;16.5;100
49583;BME280;36329;48.816;44.624;2023-05-24T00:12:28;101035;;;16.3;100
49583;BME280;36329;48.816;44.624;2023-05-24T00:15:30;101037;;;16.2;100
49583;BME280;36329;48.816;44.624;2023-05-24T00:18:32;101034;;;16.3;100
49583;BME280;36329;48.816;44.624;2023-05-24T00:21:34;101039;;;16.5;100
49583;BME280;36329;48.816;44.624;2023-05-24T00:24:36;101048;;;16.5;100
49583;BME280;36329;48.816;44.624;2023-05-24T00:27:38;101039;;;16.7;100
49583;BME280;36329;48.816;44.624;2023-05-24T00:30:40;101045;;;16.8;100
49583;BME280;36329;48.816;44.624;2023-05-24T00:33:44;101042;;;16.9;100
49583;BME280;36329;48.816;44.624;2023-05-24T00:36:46;101038;;;17;100
49583;BME280;36329;48.816;44.624;2023-05-24T00:39:48;101034;;;17.1;100
49583;BME280;36329;48.816;44.624;2023-05-24T00:42:50;101042;;;17;100
49583;BME280;36329;48.816;44.624;2023-05-24T00:46:08;101037;;;17;100
49583;BME280;36329;48.816;44.624;2023-05-24T00:49:13;101039;;;17;100
49583;BME280;36329;48.816;44.624;2023-05-24T00:52:16;101038;;;16.9;100
49583;BME280;36329;48.816;44.624;2023-05-24T00:55:18;101047;;;16.5;100
49583;BME280;36329;48.816;44.624;2023-05-24T00:58:22;101041;;;16.4;100
49583;BME280;36329;48.816;44.624;2023-05-24T01:01:24;101048;;;16.5;100
49583;BME280;36329;48.816;44.624;2023-05-24T01:04:26;101043;;;16.4;100
49583;BME280;36329;48.816;44.624;2023-05-24T01:07:35;101046;;;16.4;100
49583;BME280;36329;48.816;44.624;2023-05-24T01:10:48;101040;;;16.4;100
49583;BME280;36329;48.816;44.624;2023-05-24T01:17:19;101045;;;16.3;100
49583;BME280;36329;48.816;44.624;2023-05-24T01:20:22;101047;;;16.5;100
49583;BME280;36329;48.816;44.624;2023-05-24T01:23:32;101047;;;16.5;100
49583;BME280;36329;48.816;44.624;2023-05-24T01:26:55;101046;;;16.5;100
49583;BME280;36329;48.816;44.624;2023-05-24T01:29:59;101044;;;16.5;100
49583;BME280;36329;48.816;44.624;2023-05-24T01:33:02;101048;;;16.4;100
49583;BME280;36329;48.816;44.624;2023-05-24T01:36:05;101040;;;16.1;100
49583;BME280;36329;48.816;44.624;2023-05-24T01:39:07;101048;;;16.1;100
49583;BME280;36329;48.816;44.624;2023-05-24T01:42:30;101052;;;16.3;100
49583;BME280;36329;48.816;44.624;2023-05-24T01:45:36;101048;;;16.4;100
49583;BME280;36329;48.816;44.624;2023-05-24T01:48:50;101047;;;16.3;100
49583;BME280;36329;48.816;44.624;2023-05-24T01:51:58;101053;;;16.2;100
49583;BME280;36329;48.816;44.624;2023-05-24T01:55:02;101052;;;16.3;100
49583;BME280;36329;48.816;44.624;2023-05-24T01:58:06;101063;;;16.4;100
49583;BME280;36329;48.816;44.624;2023-05-24T02:01:09;101067;;;16.6;100
49583;BME280;36329;48.816;44.624;2023-05-24T02:04:12;101061;;;16.7;100
49583;BME280;36329;48.816;44.624;2023-05-24T02:07:14;101062;;;16.9;100
49583;BME280;36329;48.816;44.624;2023-05-24T02:10:16;101064;;;17.1;100
49583;BME280;36329;48.816;44.624;2023-05-24T02:13:18;101069;;;17.4;100
49583;BME280;36329;48.816;44.624;2023-05-24T02:16:20;101073;;;17.4;100
49583;BME280;36329;48.816;44.624;2023-05-24T02:19:22;101066;;;17.6;100
49583;BME280;36329;48.816;44.624;2023-05-24T02:22:24;101064;;;17.6;100
49583;BME280;36329;48.816;44.624;2023-05-24T02:25:26;101064;;;17.6;100
49583;BME280;36329;48.816;44.624;2023-05-24T02:28:28;101070;;;17.9;100
49583;BME280;36329;48.816;44.624;2023-05-24T02:31:30;101074;;;18;100
49583;BME280;36329;48.816;44.624;2023-05-24T02:34:32;101079;;;18.1;100
49583;BME280;36329;48.816;44.624;2023-05-24T02:37:34;101083;;;18.3;100
49583;BME280;36329;48.816;44.624;2023-05-24T02:40:36;101082;;;18.4;100
49583;BME280;36329;48.816;44.624;2023-05-24T02:43:38;101086;;;18.5;100
49583;BME280;36329;48.816;44.624;2023-05-24T02:46:40;101071;;;18.7;100
49583;BME280;36329;48.816;44.624;2023-05-24T02:49:42;101070;;;18.8;100
49583;BME280;36329;48.816;44.624;2023-05-24T02:52:44;101080;;;18.6;100
49583;BME280;36329;48.816;44.624;2023-05-24T02:55:46;101081;;;18.9;100
49583;BME280;36329;48.816;44.624;2023-05-24T02:58:48;101089;;;18.9;100
49583;BME280;36329;48.816;44.624;2023-05-24T03:01:49;101080;;;19;100
49583;BME280;36329;48.816;44.624;2023-05-24T03:04:51;101085;;;18.8;100
49583;BME280;36329;48.816;44.624;2023-05-24T03:07:53;101084;;;19;100
49583;BME280;36329;48.816;44.624;2023-05-24T03:10:55;101083;;;19;100
49583;BME280;36329;48.816;44.624;2023-05-24T03:13:57;101069;;;19.2;100
49583;BME280;36329;48.816;44.624;2023-05-24T03:16:59;101069;;;19.2;100
49583;BME280;36329;48.816;44.624;2023-05-24T03:20:01;101069;;;19.3;100
49583;BME280;36329;48.816;44.624;2023-05-24T03:23:03;101068;;;19.3;100
49583;BME280;36329;48.816;44.624;2023-05-24T03:26:05;101054;;;19.5;100
49583;BME280;36329;48.816;44.624;2023-05-24T03:29:07;101056;;;19.4;100
49583;BME280;36329;48.816;44.624;2023-05-24T03:32:09;101057;;;19.5;100
49583;BME280;36329;48.816;44.624;2023-05-24T03:35:11;101047;;;19.5;100
49583;BME280;36329;48.816;44.624;2023-05-24T03:38:12;101059;;;19.5;100
49583;BME280;36329;48.816;44.624;2023-05-24T03:41:14;101053;;;19.5;100
49583;BME280;36329;48.816;44.624;2023-05-24T03:44:16;101050;;;19.7;100
49583;BME280;36329;48.816;44.624;2023-05-24T03:47:18;101053;;;19.6;100
49583;BME280;36329;48.816;44.624;2023-05-24T03:50:20;101060;;;19.6;100
49583;BME280;36329;48.816;44.624;2023-05-24T03:53:24;101055;;;19.8;100
49583;BME280;36329;48.816;44.624;2023-05-24T03:56:26;101058;;;19.9;100
49583;BME280;36329;48.816;44.624;2023-05-24T03:59:28;101051;;;19.9;100
49583;BME280;36329;48.816;44.624;2023-05-24T04:02:30;101049;;;19.8;100
49583;BME280;36329;48.816;44.624;2023-05-24T04:05:32;101059;;;19.8;100
49583;BME280;36329;48.816;44.624;2023-05-24T04:08:34;101063;;;19.9;100
49583;BME280;36329;48.816;44.624;2023-05-24T04:11:36;101057;;;19.6;100
49583;BME280;36329;48.816;44.624;2023-05-24T04:14:38;101057;;;19.7;100
49583;BME280;36329;48.816;44.624;2023-05-24T04:17:40;101056;;;19.5;100
49583;BME280;36329;48.816;44.624;2023-05-24T04:20:42;101063;;;19.4;100
49583;BME280;36329;48.816;44.624;2023-05-24T04:23:44;101075;;;19.4;100
49583;BME280;36329;48.816;44.624;2023-05-24T04:26:46;101085;;;19.2;100
49583;BME280;36329;48.816;44.624;2023-05-24T04:29:48;101094;;;19;100
49583;BME280;36329;48.816;44.624;2023-05-24T04:32:49;101093;;;19.3;100
49583;BME280;36329;48.816;44.624;2023-05-24T04:35:51;101097;;;19.3;100
49583;BME280;36329;48.816;44.624;2023-05-24T04:38:53;101100;;;19.5;100
49583;BME280;36329;48.816;44.624;2023-05-24T04:41:55;101100;;;19.8;100
49583;BME280;36329;48.816;44.624;2023-05-24T04:44:57;101101;;;19.9;100
49583;BME280;36329;48.816;44.624;2023-05-24T04:47:59;101097;;;20.1;100
49583;BME280;36329;48.816;44.624;2023-05-24T04:51:01;101101;;;20.4;100
49583;BME280;36329;48.816;44.624;2023-05-24T04:54:03;101095;;;20.6;100
49583;BME280;36329;48.816;44.624;2023-05-24T04:57:06;101095;;;20.8;100
49583;BME280;36329;48.816;44.624;2023-05-24T05:00:08;101103;;;21;100
49583;BME280;36329;48.816;44.624;2023-05-24T05:03:10;101096;;;20.9;100
49583;BME280;36329;48.816;44.624;2023-05-24T05:06:12;101100;;;20.9;100
49583;BME280;36329;48.816;44.624;2023-05-24T05:09:14;101104;;;21;100
49583;BME280;36329;48.816;44.624;2023-05-24T05:12:16;101098;;;21.2;99.1
49583;BME280;36329;48.816;44.624;2023-05-24T05:15:20;101101;;;21.3;98.8
49583;BME280;36329;48.816;44.624;2023-05-24T05:18:23;101098;;;21.6;98.4
49583;BME280;36329;48.816;44.624;2023-05-24T05:21:25;101099;;;21.8;96
49583;BME280;36329;48.816;44.624;2023-05-24T05:24:26;101097;;;21.9;95.5
49583;BME280;36329;48.816;44.624;2023-05-24T05:27:29;101095;;;22.3;92.2
49583;BME280;36329;48.816;44.624;2023-05-24T05:30:30;101095;;;22.5;93.3
49583;BME280;36329;48.816;44.624;2023-05-24T05:33:33;101106;;;22.8;89.1
49583;BME280;36329;48.816;44.624;2023-05-24T05:36:35;101115;;;23;88.5
49583;BME280;36329;48.816;44.624;2023-05-24T05:39:38;101126;;;23.2;86.3
49583;BME280;36329;48.816;44.624;2023-05-24T05:42:39;101127;;;23.3;87.2
49583;BME280;36329;48.816;44.624;2023-05-24T05:45:41;101121;;;23.4;85.9
49583;BME280;36329;48.816;44.624;2023-05-24T05:48:43;101116;;;23.5;84.5
49583;BME280;36329;48.816;44.624;2023-05-24T05:51:45;101109;;;23.6;83.3
49583;BME280;36329;48.816;44.624;2023-05-24T05:54:47;101098;;;23.7;84.9
49583;BME280;36329;48.816;44.624;2023-05-24T05:57:50;101093;;;23.8;82.3
49583;BME280;36329;48.816;44.624;2023-05-24T06:00:52;101085;;;23.6;81.8
49583;BME280;36329;48.816;44.624;2023-05-24T06:03:54;101083;;;23.9;82.1
49583;BME280;36329;48.816;44.624;2023-05-24T06:06:56;101083;;;23.9;80.9
49583;BME280;36329;48.816;44.624;2023-05-24T06:09:58;101085;;;24.1;80.6
49583;BME280;36329;48.816;44.624;2023-05-24T06:13:01;101076;;;24;82
49583;BME280;36329;48.816;44.624;2023-05-24T06:16:04;101075;;;24;79.6
49583;BME280;36329;48.816;44.624;2023-05-24T06:19:06;101071;;;24.2;79.2
49583;BME280;36329;48.816;44.624;2023-05-24T06:22:08;101068;;;24.4;77.7
49583;BME280;36329;48.816;44.624;2023-05-24T06:25:10;101070;;;24.6;77
49583;BME280;36329;48.816;44.624;2023-05-24T06:28:12;101066;;;24.6;77.4
49583;BME280;36329;48.816;44.624;2023-05-24T06:31:14;101066;;;24.5;76.7
49583;BME280;36329;48.816;44.624;2023-05-24T06:34:17;101070;;;24.8;76.5
49583;BME280;36329;48.816;44.624;2023-05-24T06:37:19;101068;;;24.7;78.5
49583;BME280;36329;48.816;44.624;2023-05-24T06:40:21;101072;;;24.9;77
49583;BME280;36329;48.816;44.624;2023-05-24T06:43:23;101061;;;25.2;75.3
49583;BME280;36329;48.816;44.624;2023-05-24T06:46:25;101066;;;25.4;75.8
49583;BME280;36329;48.816;44.624;2023-05-24T06:49:27;101057;;;25.4;74.1
49583;BME280;36329;48.816;44.624;2023-05-24T06:52:29;101051;;;25.4;74.2
49583;BME280;36329;48.816;44.624;2023-05-24T06:55:31;101043;;;25.5;74.1
49583;BME280;36329;48.816;44.624;2023-05-24T06:58:33;101036;;;25.8;73.3
49583;BME280;36329;48.816;44.624;2023-05-24T07:01:35;101036;;;26.1;72
49583;BME280;36329;48.816;44.624;2023-05-24T07:04:37;101030;;;26.2;69.7
49583;BME280;36329;48.816;44.624;2023-05-24T07:07:40;101025;;;26.2;69.9
49583;BME280;36329;48.816;44.624;2023-05-24T07:10:42;101024;;;26.6;68.8
49583;BME280;36329;48.816;44.624;2023-05-24T07:13:44;101020;;;26.9;67.4
49583;BME280;36329;48.816;44.624;2023-05-24T07:16:46;101013;;;27;67.9
49583;BME280;36329;48.816;44.624;2023-05-24T07:19:48;101019;;;27;66.6
49583;BME280;36329;48.816;44.624;2023-05-24T07:22:50;101021;;;27;65.5
49583;BME280;36329;48.816;44.624;2023-05-24T07:25:52;101012;;;27.2;65.3
49583;BME280;36329;48.816;44.624;2023-05-24T07:28:54;101010;;;27.4;64.7
49583;BME280;36329;48.816;44.624;2023-05-24T07:31:56;101005;;;27.5;63.8
49583;BME280;36329;48.816;44.624;2023-05-24T07:34:58;100999;;;28;62.7
49583;BME280;36329;48.816;44.624;2023-05-24T07:38:00;100986;;;28;62.7
49583;BME280;36329;48.816;44.624;2023-05-24T07:41:02;100972;;;28.1;64.8
49583;BME280;36329;48.816;44.624;2023-05-24T07:44:04;100970;;;28.5;62.2
49583;BME280;36329;48.816;44.624;2023-05-24T07:47:06;100969;;;28.8;59.7
49583;BME280;36329;48.816;44.624;2023-05-24T07:50:09;100966;;;28.4;61
49583;BME280;36329;48.816;44.624;2023-05-24T07:53:11;100960;;;28.3;60.9
49583;BME280;36329;48.816;44.624;2023-05-24T07:56:13;100955;;;28.3;61
49583;BME280;36329;48.816;44.624;2023-05-24T07:59:15;100960;;;28.4;60.9
49583;BME280;36329;48.816;44.624;2023-05-24T08:02:17;100953;;;28.7;58.7
49583;BME280;36329;48.816;44.624;2023-05-24T08:05:19;100957;;;28.7;59.1
49583;BME280;36329;48.816;44.624;2023-05-24T08:08:21;100954;;;28.9;58.2
49583;BME280;36329;48.816;44.624;2023-05-24T08:11:23;100957;;;29.5;57.3
49583;BME280;36329;48.816;44.624;2023-05-24T08:14:25;100950;;;29.5;56.4
49583;BME280;36329;48.816;44.624;2023-05-24T08:17:27;100961;;;29.7;54.9
49583;BME280;36329;48.816;44.624;2023-05-24T08:20:29;100956;;;29.8;55.7
49583;BME280;36329;48.816;44.624;2023-05-24T08:23:31;100957;;;29.6;55.5
49583;BME280;36329;48.816;44.624;2023-05-24T08:26:33;100964;;;30.1;55.5
49583;BME280;36329;48.816;44.624;2023-05-24T08:29:36;100963;;;30.3;52.6
49583;BME280;36329;48.816;44.624;2023-05-24T08:32:38;100963;;;30.4;53.1
49583;BME280;36329;48.816;44.624;2023-05-24T08:35:40;100967;;;30.6;52
49583;BME280;36329;48.816;44.624;2023-05-24T08:38:42;100960;;;30.7;52
49583;BME280;36329;48.816;44.624;2023-05-24T08:41:45;100959;;;30.8;52.2
49583;BME280;36329;48.816;44.624;2023-05-24T08:44:52;100957;;;30.5;51.1
49583;BME280;36329;48.816;44.624;2023-05-24T08:47:55;100957;;;30.5;51.4
49583;BME280;36329;48.816;44.624;2023-05-24T08:50:57;100950;;;30.4;50.5
49583;BME280;36329;48.816;44.624;2023-05-24T08:54:00;100954;;;30.6;51.3
49583;BME280;36329;48.816;44.624;2023-05-24T08:57:03;100952;;;30.8;49.5
49583;BME280;36329;48.816;44.624;2023-05-24T09:00:06;100942;;;30.8;48.2
49583;BME280;36329;48.816;44.624;2023-05-24T09:03:09;100945;;;31;48.5
49583;BME280;36329;48.816;44.624;2023-05-24T09:06:12;100948;;;31.2;46.1
49583;BME280;36329;48.816;44.624;2023-05-24T09:09:17;100947;;;30.7;46.3
49583;BME280;36329;48.816;44.624;2023-05-24T09:12:22;100949;;;30.8;47.2
49583;BME280;36329;48.816;44.624;2023-05-24T09:15:25;100942;;;30.7;46.3
49583;BME280;36329;48.816;44.624;2023-05-24T09:18:27;100945;;;30.8;45.5
49583;BME280;36329;48.816;44.624;2023-05-24T09:21:30;100941;;;31.2;44.2
49583;BME280;36329;48.816;44.624;2023-05-24T09:24:39;100947;;;31.2;46
49583;BME280;36329;48.816;44.624;2023-05-24T09:27:43;100941;;;31.1;45.5
49583;BME280;36329;48.816;44.624;2023-05-24T09:30:59;100939;;;30.9;44.7
49583;BME280;36329;48.816;44.624;2023-05-24T09:34:02;100939;;;31.4;44.4
49583;BME280;36329;48.816;44.624;2023-05-24T09:37:04;100943;;;31.2;43.5
49583;BME280;36329;48.816;44.624;2023-05-24T09:40:16;100937;;;31.6;43.8
49583;BME280;36329;48.816;44.624;2023-05-24T09:43:19;100930;;;31.9;40.3
49583;BME280;36329;48.816;44.624;2023-05-24T09:46:21;100929;;;31.9;41.2
49583;BME280;36329;48.816;44.624;2023-05-24T09:49:23;100938;;;31.8;40.9
49583;BME280;36329;48.816;44.624;2023-05-24T09:52:25;100934;;;31.7;38.6
49583;BME280;36329;48.816;44.624;2023-05-24T09:55:27;100934;;;31.7;40.5
49583;BME280;36329;48.816;44.624;2023-05-24T09:58:31;100944;;;31;36.9
49583;BME280;36329;48.816;44.624;2023-05-24T10:01:33;100938;;;31.3;36.8
49583;BME280;36329;48.816;44.624;2023-05-24T10:04:35;100939;;;30.8;36.8
49583;BME280;36329;48.816;44.624;2023-05-24T10:07:37;100933;;;29.9;37.4
49583;BME280;36329;48.816;44.624;2023-05-24T10:10:40;100928;;;30;38.2
49583;BME280;36329;48.816;44.624;2023-05-24T10:13:42;100942;;;29.4;36.8
49583;BME280;36329;48.816;44.624;2023-05-24T10:16:45;100924;;;29.6;38.3
49583;BME280;36329;48.816;44.624;2023-05-24T10:19:47;100939;;;29.1;38
49583;BME280;36329;48.816;44.624;2023-05-24T10:22:52;100928;;;29;39.9
49583;BME280;36329;48.816;44.624;2023-05-24T10:25:58;100934;;;28.5;38.8
49583;BME280;36329;48.816;44.624;2023-05-24T10:29:10;100933;;;28.2;39.2
49583;BME280;36329;48.816;44.624;2023-05-24T10:32:20;100928;;;28.2;37.8
49583;BME280;36329;48.816;44.624;2023-05-24T10:35:23;100919;;;28.1;38.1
49583;BME280;36329;48.816;44.624;2023-05-24T10:38:26;100909;;;28.2;39
49583;BME280;36329;48.816;44.624;2023-05-24T10:41:28;100910;;;28.4;39
49583;BME280;36329;48.816;44.624;2023-05-24T10:44:30;100916;;;27.9;40
49583;BME280;36329;48.816;44.624;2023-05-24T10:47:37;100902;;;27.7;40.7
49583;BME280;36329;48.816;44.624;2023-05-24T10:50:40;100896;;;27.7;40.8
49583;BME280;36329;48.816;44.624;2023-05-24T10:53:42;100900;;;28;40.9
49583;BME280;36329;48.816;44.624;2023-05-24T10:56:45;100901;;;28.3;40.6
49583;BME280;36329;48.816;44.624;2023-05-24T10:59:48;100896;;;28.2;40.5
49583;BME280;36329;48.816;44.624;2023-05-24T11:02:50;100899;;;28.5;39.8
49583;BME280;36329;48.816;44.624;2023-05-24T11:05:53;100903;;;28.6;39.5
49583;BME280;36329;48.816;44.624;2023-05-24T11:08:59;100914;;;28.1;40.1
49583;BME280;36329;48.816;44.624;2023-05-24T11:12:03;100918;;;28.3;40.5
49583;BME280;36329;48.816;44.624;2023-05-24T11:15:07;100926;;;28.1;41.4
49583;BME280;36329;48.816;44.624;2023-05-24T11:18:13;100926;;;27.8;42.6
49583;BME280;36329;48.816;44.624;2023-05-24T11:21:16;100924;;;27.5;43.1
49583;BME280;36329;48.816;44.624;2023-05-24T11:24:19;100933;;;27.4;43.3
49583;BME280;36329;48.816;44.624;2023-05-24T11:27:22;100930;;;27.5;43.5
49583;BME280;36329;48.816;44.624;2023-05-24T11:30:25;100919;;;27.5;43.5
49583;BME280;36329;48.816;44.624;2023-05-24T11:33:27;100919;;;27.5;43.9
49583;BME280;36329;48.816;44.624;2023-05-24T11:36:29;100916;;;27.6;44.7
49583;BME280;36329;48.816;44.624;2023-05-24T11:39:32;100914;;;27.5;44.8
49583;BME280;36329;48.816;44.624;2023-05-24T11:42:35;100911;;;27.6;45.3
49583;BME280;36329;48.816;44.624;2023-05-24T11:45:38;100908;;;27.8;45.4
49583;BME280;36329;48.816;44.624;2023-05-24T11:48:40;100913;;;27.8;45.7
49583;BME280;36329;48.816;44.624;2023-05-24T11:51:42;100914;;;27.7;45.3
49583;BME280;36329;48.816;44.624;2023-05-24T11:54:44;100900;;;27.7;45.3
49583;BME280;36329;48.816;44.624;2023-05-24T11:57:53;100906;;;27.4;45
49583;BME280;36329;48.816;44.624;2023-05-24T12:00:58;100906;;;27.5;45.3
49583;BME280;36329;48.816;44.624;2023-05-24T12:04:01;100917;;;27.3;45.9
49583;BME280;36329;48.816;44.624;2023-05-24T12:07:03;100921;;;27.3;45.9
49583;BME280;36329;48.816;44.624;2023-05-24T12:10:05;100916;;;27.2;45.8
49583;BME280;36329;48.816;44.624;2023-05-24T12:13:18;100910;;;27.2;46.5
49583;BME280;36329;48.816;44.624;2023-05-24T12:16:21;100904;;;27.2;45.9
49583;BME280;36329;48.816;44.624;2023-05-24T12:19:24;100905;;;27.3;46.3
49583;BME280;36329;48.816;44.624;2023-05-24T12:22:31;100903;;;27.3;47.4
49583;BME280;36329;48.816;44.624;2023-05-24T12:25:36;100896;;;27;49.4
49583;BME280;36329;48.816;44.624;2023-05-24T12:28:38;100900;;;27.1;48.8
49583;BME280;36329;48.816;44.624;2023-05-24T12:31:41;100910;;;27.2;47.8
49583;BME280;36329;48.816;44.624;2023-05-24T12:34:44;100911;;;27.1;49
49583;BME280;36329;48.816;44.624;2023-05-24T12:37:46;100915;;;27.1;49.2
49583;BME280;36329;48.816;44.624;2023-05-24T12:40:48;100909;;;27.1;49.4
49583;BME280;36329;48.816;44.624;2023-05-24T12:43:51;100912;;;26.9;49.4
49583;BME280;36329;48.816;44.624;2023-05-24T12:46:54;100904;;;26.8;50
49583;BME280;36329;48.816;44.624;2023-05-24T12:49:56;100899;;;26.8;50.1
49583;BME280;36329;48.816;44.624;2023-05-24T12:52:58;100889;;;26.9;50.8
49583;BME280;36329;48.816;44.624;2023-05-24T12:56:00;100878;;;26.8;50.8
49583;BME280;36329;48.816;44.624;2023-05-24T12:59:02;100878;;;26.8;51.1
49583;BME280;36329;48.816;44.624;2023-05-24T13:02:04;100875;;;26.8;51.1
49583;BME280;36329;48.816;44.624;2023-05-24T13:05:06;100866;;;26.8;51.7
49583;BME280;36329;48.816;44.624;2023-05-24T13:08:08;100870;;;26.6;51.1
49583;BME280;36329;48.816;44.624;2023-05-24T13:11:10;100866;;;26.6;51.6
49583;BME280;36329;48.816;44.624;2023-05-24T13:14:12;100865;;;26.6;51.5
49583;BME280;36329;48.816;44.624;2023-05-24T13:17:14;100866;;;26.6;50.9
49583;BME280;36329;48.816;44.624;2023-05-24T13:20:16;100860;;;26.7;51
49583;BME280;36329;48.816;44.624;2023-05-24T13:23:19;100865;;;26.7;51
49583;BME280;36329;48.816;44.624;2023-05-24T13:26:22;100863;;;26.5;51.3
49583;BME280;36329;48.816;44.624;2023-05-24T13:29:25;100851;;;26.5;50.7
49583;BME280;36329;48.816;44.624;2023-05-24T13:32:27;100851;;;26.5;50.7
49583;BME280;36329;48.816;44.624;2023-05-24T13:35:29;100852;;;26.5;49.9
49583;BME280;36329;48.816;44.624;2023-05-24T13:38:31;100850;;;26.5;50.9
49583;BME280;36329;48.816;44.624;2023-05-24T13:41:34;100844;;;26.5;50.7
49583;BME280;36329;48.816;44.624;2023-05-24T13:44:36;100839;;;26.6;51
49583;BME280;36329;48.816;44.624;2023-05-24T13:47:38;100827;;;26.6;51.3
49583;BME280;36329;48.816;44.624;2023-05-24T13:50:39;100825;;;26.7;52.7
49583;BME280;36329;48.816;44.624;2023-05-24T13:53:41;100823;;;26.8;51.2
49583;BME280;36329;48.816;44.624;2023-05-24T13:56:44;100829;;;26.7;50.3
49583;BME280;36329;48.816;44.624;2023-05-24T13:59:45;100834;;;26.7;50.3
49583;BME280;36329;48.816;44.624;2023-05-24T14:02:48;100833;;;26.6;50.1
49583;BME280;36329;48.816;44.624;2023-05-24T14:05:50;100825;;;26.6;50.8
49583;BME280;36329;48.816;44.624;2023-05-24T14:08:52;100817;;;26.6;51
49583;BME280;36329;48.816;44.624;2023-05-24T14:11:54;100820;;;26.7;50.8
49583;BME280;36329;48.816;44.624;2023-05-24T14:14:57;100814;;;26.7;51.2
49583;BME280;36329;48.816;44.624;2023-05-24T14:18:00;100813;;;26.7;51.6
49583;BME280;36329;48.816;44.624;2023-05-24T14:21:02;100816;;;26.6;52.2
49583;BME280;36329;48.816;44.624;2023-05-24T14:24:05;100811;;;26.5;52.3
49583;BME280;36329;48.816;44.624;2023-05-24T14:27:07;100804;;;26.6;52.9
49583;BME280;36329;48.816;44.624;2023-05-24T14:30:09;100802;;;26.5;52.8
49583;BME280;36329;48.816;44.624;2023-05-24T14:33:11;100801;;;26.5;52.9
49583;BME280;36329;48.816;44.624;2023-05-24T14:36:14;100809;;;26.5;53.8
49583;BME280;36329;48.816;44.624;2023-05-24T14:39:15;100812;;;26.5;53.8
49583;BME280;36329;48.816;44.624;2023-05-24T14:42:17;100827;;;26.4;54.5
49583;BME280;36329;48.816;44.624;2023-05-24T14:45:20;100830;;;26.4;55
49583;BME280;36329;48.816;44.624;2023-05-24T14:48:22;100836;;;26.4;55.1
49583;BME280;36329;48.816;44.624;2023-05-24T14:51:24;100838;;;26.4;55.2
49583;BME280;36329;48.816;44.624;2023-05-24T14:54:26;100837;;;26.4;56.6
49583;BME280;36329;48.816;44.624;2023-05-24T14:57:28;100842;;;26.3;58.4
49583;BME280;36329;48.816;44.624;2023-05-24T15:00:31;100849;;;26.3;58.2
49583;BME280;36329;48.816;44.624;2023-05-24T15:03:33;100854;;;26.3;58.9
49583;BME280;36329;48.816;44.624;2023-05-24T15:06:35;100848;;;26.1;56.3
49583;BME280;36329;48.816;44.624;2023-05-24T15:09:37;100853;;;26.1;56.1
49583;BME280;36329;48.816;44.624;2023-05-24T15:12:39;100849;;;26.1;56.4
49583;BME280;36329;48.816;44.624;2023-05-24T15:15:41;100846;;;26.1;57.2
49583;BME280;36329;48.816;44.624;2023-05-24T15:18:44;100845;;;26.1;57.3
49583;BME280;36329;48.816;44.624;2023-05-24T15:21:46;100850;;;26.1;57.1
49583;BME280;36329;48.816;44.624;2023-05-24T15:24:48;100846;;;26;59.1
49583;BME280;36329;48.816;44.624;2023-05-24T15:27:50;100852;;;26;60.8
49583;BME280;36329;48.816;44.624;2023-05-24T15:30:53;100850;;;25.9;61.8
49583;BME280;36329;48.816;44.624;2023-05-24T15:33:55;100853;;;25.8;62.7
49583;BME280;36329;48.816;44.624;2023-05-24T15:36:57;100859;;;25.8;62.4
49583;BME280;36329;48.816;44.624;2023-05-24T15:39:59;100854;;;25.9;62.9
49583;BME280;36329;48.816;44.624;2023-05-24T15:43:02;100858;;;25.8;61.8
49583;BME280;36329;48.816;44.624;2023-05-24T15:46:04;100862;;;25.9;61.8
49583;BME280;36329;48.816;44.624;2023-05-24T15:49:06;100854;;;25.8;63.2
49583;BME280;36329;48.816;44.624;2023-05-24T15:52:09;100854;;;25.9;63.1
49583;BME280;36329;48.816;44.624;2023-05-24T15:55:11;100864;;;25.8;61.4
49583;BME280;36329;48.816;44.624;2023-05-24T15:58:13;100866;;;25.7;65.8
49583;BME280;36329;48.816;44.624;2023-05-24T16:01:15;100866;;;25.6;63.7
49583;BME280;36329;48.816;44.624;2023-05-24T16:04:17;100872;;;25.6;65.9
49583;BME280;36329;48.816;44.624;2023-05-24T16:07:19;100870;;;25.6;67.3
49583;BME280;36329;48.816;44.624;2023-05-24T16:10:22;100869;;;25.5;65.7
49583;BME280;36329;48.816;44.624;2023-05-24T16:13:24;100873;;;25.5;67.6
49583;BME280;36329;48.816;44.624;2023-05-24T16:16:26;100876;;;25.4;67.7
49583;BME280;36329;48.816;44.624;2023-05-24T16:19:28;100878;;;25.4;66
49583;BME280;36329;48.816;44.624;2023-05-24T16:22:32;100882;;;25.4;67.8
49583;BME280;36329;48.816;44.624;2023-05-24T16:25:34;100880;;;25.3;68.2
49583;BME280;36329;48.816;44.624;2023-05-24T16:28:37;100874;;;25.2;69.2
49583;BME280;36329;48.816;44.624;2023-05-24T16:31:40;100883;;;25.2;69.3
49583;BME280;36329;48.816;44.624;2023-05-24T16:34:42;100886;;;25.1;68.5
49583;BME280;36329;48.816;44.624;2023-05-24T16:37:44;100887;;;25.1;69.8
49583;BME280;36329;48.816;44.624;2023-05-24T16:40:47;100888;;;25;67.9
49583;BME280;36329;48.816;44.624;2023-05-24T16:43:48;100886;;;25;67.8
49583;BME280;36329;48.816;44.624;2023-05-24T16:46:51;100891;;;25;70.3
49583;BME280;36329;48.816;44.624;2023-05-24T16:49:53;100891;;;24.9;69.6
49583;BME280;36329;48.816;44.624;2023-05-24T16:52:56;100887;;;24.9;70.1
49583;BME280;36329;48.816;44.624;2023-05-24T16:55:58;100888;;;24.8;71.5
49583;BME280;36329;48.816;44.624;2023-05-24T16:59:00;100892;;;24.6;72.4